Tucson, AZ (85749)

2:59 PM MST on July 27, 2016 (GMT -0700)
| | Change Station

Elev -9999 ft 0.00 °N, 0.00 °E | Updated

Thunderstorm
Thunderstorm
96 °F
Feels Like 97 °F
N
9
Wind Variable Wind from NNW
Gusts mph

Today
High -- | Low -- °F
--% Chance of Precip.
Yesterday
High -- | Low -- °F
Precip. -- in
Pressure 29.91 in
Visibility 10.0 miles
Clouds Clear
Heat Index 97 °F
Dew Point 61 °F
Humidity 31%
Rainfall --
Snow Depth Not available.
5:34 AM 7:23 PM
Last Quarter, 39% visible
SPECI KDMA 272125Z AUTO 31010G17KT 10SM CLR 38/15 A2991 RMK AO2 WSHFT 21
Pressure 29.91 in
Visibility 10.0 miles
Clouds Clear
Heat Index 97 °F
Dew Point 61 °F
Humidity 31%
Rainfall --
Snow Depth Not available.
5:34 AM 7:23 PM
Last Quarter, 39% visible
SPECI KDMA 272125Z AUTO 31010G17KT 10SM CLR 38/15 A2991 RMK AO2 WSHFT 21

10-Day Weather Forecast

Almanac

Astronomy

Jul. 27, 2016 Rise Set
Actual Time
Civil Twilight
Nautical Twilight
Astronomical Twilight
Moon
Length of Visible Light
Length of Day
Tomorrow will be .
, % of the Moon is Illuminated

Today's Extremes

State Highs State Lows

Community

WunderPhotos

Upload Photos

1,927,944 photos uploaded!

WunderBlog® & News

Nearby

Air Quality

  Air Quality AQ Index Pollutant
Not available.

Snow Depth

Station Depth Elevation

Earthquake Activity

City Distance Mag. Time & Date
Minimum magnitude displayed is 2.5.

Coastal Water Temperatures

Place Temperature

Stations

Nearby Weather Stations

Station Location Temp. Windchill Dew Point Humidity Wind Precip. Elev Updated Type
                   

Watches & Warnings

There are currently no watches in effect.